Latest Weather Observations for Geraldton Airport

IDW60801

Issued at 4:35 pm WST Wednesday 27 August 2014 (issued every 30 minutes, with the page automatically refreshed every 10 minutes)

About weather observations | Map of weather stations | Latest weather observations for WA | Other Formats
Station Details ID: 008315 Name: GERALDTON AIRPORT Lat: -28.80 Lon: 114.70 Height: 29.7 m
Data from the previous 72 hours. | See also: Recent months at Geraldton Airport
Date/Time
WST
Temp
°C
App
Temp
°C
Dew
Point
Rel
Hum
%
Delta-T
°C
Wind Press
QNH
hPa
Press
MSL
hPa
Rain
since 9 am
mm
Dir
 
Spd
km/h
Gust
km/h
Spd
kts
Gust
kts
27/04:30pm 21.2 19.0 14.4 65 4.0 S 19 24 10 13 1018.1 - 0.0
27/04:00pm 22.1 20.2 14.3 61 4.6 S 17 20 9 11 1017.7 - 0.0
27/03:30pm 22.4 20.7 13.6 57 5.1 S 15 20 8 11 1017.8 - 0.0
27/03:00pm 22.3 21.2 14.2 60 4.7 S 13 19 7 10 1017.8 1017.9 0.0
27/02:30pm 22.4 19.9 14.0 59 4.9 S 20 28 11 15 1018.0 - 0.0
27/02:00pm 22.6 19.8 13.2 55 5.4 S 20 24 11 13 1018.2 - 0.0
27/01:30pm 23.1 20.4 13.4 54 5.6 SSW 20 26 11 14 1018.3 - 0.0
27/01:00pm 23.0 19.6 13.6 55 5.5 SSW 24 30 13 16 1018.6 - 0.0
27/12:30pm 24.0 22.7 13.6 52 6.1 S 13 20 7 11 1018.8 - 0.0
27/12:00pm 22.9 21.4 13.0 53 5.7 S 13 17 7 9 1019.3 1019.4 0.0
27/11:30am 22.2 21.3 13.8 59 4.9 SE 11 17 6 9 1019.8 - 0.0
27/11:00am 21.0 20.4 14.5 66 3.8 SSE 11 15 6 8 1020.4 - 0.0
27/10:30am 20.0 19.8 14.7 71 3.1 SSE 9 17 5 9 1021.0 - 0.0
27/10:00am 18.2 17.2 14.5 79 2.1 SSE 13 17 7 9 1021.1 - 0.0
27/09:30am 16.4 16.2 14.7 90 1.0 SE 9 13 5 7 1021.2 - 0.0
27/09:00am 14.5 13.9 13.6 94 0.5 S 9 13 5 7 1021.4 1021.5 0.0
27/08:30am 13.5 13.2 12.8 95 0.4 ENE 6 7 3 4 1021.3 - 0.0
27/08:00am 11.2 11.5 10.8 97 0.2 CALM 0 0 0 0 1021.4 - 0.0
27/07:30am 9.2 7.2 8.8 97 0.2 NE 9 11 5 6 1021.1 - 0.0
27/07:00am 7.7 5.4 7.5 99 0.1 NE 9 11 5 6 1020.8 - 0.0
27/06:30am 7.7 5.8 7.6 99 0.0 ENE 7 9 4 5 1020.4 - 0.0
27/06:00am 8.9 7.7 8.1 95 0.4 NE 4 7 2 4 1020.4 1020.5 0.0
27/05:55am 8.0 6.8 8.0 100 0.0 ENE 4 7 2 4 1020.4 - 0.0
27/05:30am 8.0 6.2 7.8 99 0.1 ENE 7 9 4 5 1020.1 - 0.0
27/05:00am 8.4 7.2 8.2 99 0.1 NE 4 9 2 5 1020.0 - 0.0
27/04:30am 8.6 7.4 8.2 97 0.2 NNE 4 9 2 5 1019.9 - 0.0
27/04:00am 8.8 6.3 8.4 97 0.2 NNE 11 13 6 7 1019.9 - 0.0
27/03:30am 9.5 8.3 9.5 100 0.0 ESE 6 9 3 5 1019.9 - 0.0
27/03:16am 10.0 8.0 10.0 100 0.0 E 11 15 6 8 1020.1 - 0.0
27/03:00am 9.5 6.4 8.9 96 0.3 ENE 15 20 8 11 1020.3 1020.4 0.0
27/02:30am 9.6 7.7 9.2 97 0.2 S 9 11 5 6 1019.8 - 0.0
27/02:00am 9.8 8.0 9.4 97 0.2 SSE 9 11 5 6 1020.2 - 0.0
27/01:43am 10.1 8.3 9.4 95 0.3 SSE 9 9 5 5 1020.4 - 0.0
27/01:36am 9.9 8.2 9.8 99 0.1 SSE 9 9 5 5 1020.5 - 0.0
27/01:30am 10.4 8.8 10.1 98 0.2 SSE 9 11 5 6 1020.5 - 0.0
27/01:06am 10.7 9.2 10.4 98 0.2 S 9 11 5 6 1020.7 - 0.0
27/01:00am 10.9 9.4 10.6 98 0.2 SSE 9 11 5 6 1020.7 - 0.0
27/12:30am 11.5 9.8 11.2 98 0.2 SE 11 13 6 7 1021.0 - 0.0
27/12:00am 11.8 10.2 11.4 97 0.2 SSE 11 13 6 7 1021.2 1021.3 0.0
 
Date/Time
WST
Temp
°C
App
Temp
°C
Dew
Point
Rel
Hum
%
Delta-T
°C
Wind Press
QNH
hPa
Press
MSL
hPa
Rain
since 9 am
mm
Dir
 
Spd
km/h
Gust
km/h
Spd
kts
Gust
kts
26/11:30pm 11.8 10.2 11.4 97 0.2 SSE 11 13 6 7 1021.3 - 0.0
26/11:00pm 12.0 10.1 11.7 98 0.2 SSE 13 13 7 7 1021.6 - 0.0
26/10:53pm 12.1 10.1 11.6 97 0.3 SE 13 15 7 8 1021.6 - 0.0
26/10:30pm 12.2 11.1 11.8 97 0.2 SE 9 11 5 6 1021.8 - 0.0
26/10:00pm 12.5 11.4 12.1 97 0.2 SSE 9 11 5 6 1021.8 - 0.0
26/09:30pm 12.9 12.0 12.6 98 0.2 SSE 9 11 5 6 1022.0 - 0.0
26/09:00pm 13.5 12.8 13.1 97 0.2 SE 9 11 5 6 1022.0 1022.1 0.0
26/08:30pm 13.9 13.2 13.2 96 0.4 SE 9 11 5 6 1022.0 - 0.0
26/07:30pm 15.4 14.8 14.5 94 0.5 SSE 11 13 6 7 1021.8 - 0.0
26/07:00pm 16.0 15.5 15.0 94 0.6 SSE 11 13 6 7 1021.4 - 0.0
26/06:30pm 17.2 16.6 15.7 91 0.9 SSE 13 15 7 8 1021.2 - 0.0
26/06:00pm 18.5 17.3 16.0 85 1.5 SSE 17 22 9 12 1021.0 1021.1 0.0
26/05:30pm 19.6 17.3 15.8 79 2.3 S 22 28 12 15 1020.8 - 0.0
26/05:00pm 20.7 19.1 15.9 74 2.9 S 19 28 10 15 1020.6 - 0.0
26/04:30pm 21.4 19.4 15.0 67 3.8 S 19 26 10 14 1020.5 - 0.0
26/04:00pm 22.2 20.3 15.1 64 4.2 S 19 24 10 13 1020.5 - 0.0
26/03:30pm 22.1 19.9 15.0 64 4.2 S 20 26 11 14 1020.5 - 0.0
26/03:00pm 22.5 20.3 14.9 62 4.5 S 20 32 11 17 1020.7 1020.8 0.0
26/02:30pm 23.0 20.8 15.9 64 4.3 S 22 32 12 17 1020.8 - 0.0
26/02:00pm 23.3 22.0 15.9 63 4.5 S 17 24 9 13 1021.0 - 0.0
26/01:30pm 22.9 22.1 16.0 65 4.2 SSW 15 22 8 12 1021.3 - 0.0
26/01:00pm 23.4 22.8 16.7 66 4.1 SW 15 20 8 11 1021.6 - 0.0
26/12:30pm 23.3 23.0 14.5 57 5.2 S 9 13 5 7 1022.0 - 0.0
26/12:00pm 22.6 22.4 14.6 60 4.7 S 9 17 5 9 1022.6 1022.7 0.0
26/11:30am 22.9 21.8 13.2 54 5.6 S 11 15 6 8 1023.0 - 0.0
26/11:00am 23.0 23.2 14.6 59 5.0 SSE 7 17 4 9 1023.1 - 0.0
26/10:30am 22.6 22.4 14.7 61 4.7 SSW 9 17 5 9 1023.5 - 0.0
26/10:00am 21.6 22.1 15.6 68 3.6 NE 7 9 4 5 1023.6 - 0.0
26/09:30am 18.9 18.2 14.4 75 2.6 NNE 11 13 6 7 1023.6 - 0.0
26/09:00am 16.8 14.4 12.8 77 2.2 NNE 17 22 9 12 1023.5 1023.6 0.0
26/08:30am 14.1 11.3 11.5 84 1.4 NNE 17 22 9 12 1023.4 - 0.0
26/08:00am 12.4 9.4 10.5 88 1.0 NNE 17 24 9 13 1023.1 - 0.0
26/07:30am 10.5 7.9 9.3 92 0.6 NE 13 15 7 8 1022.8 - 0.0
26/07:00am 9.9 6.3 8.5 91 0.7 NNE 17 20 9 11 1022.6 - 0.0
26/06:30am 9.7 5.5 8.2 90 0.7 NNE 20 24 11 13 1022.2 - 0.0
26/06:00am 9.9 6.3 8.5 91 0.7 NNE 17 24 9 13 1022.0 1022.1 0.0
26/05:30am 9.9 5.8 8.5 91 0.7 NNE 20 26 11 14 1021.8 - 0.0
26/05:00am 9.9 6.0 8.5 91 0.7 NNE 19 24 10 13 1021.8 - 0.0
26/04:30am 10.2 6.1 8.8 91 0.7 NNE 20 24 11 13 1021.7 - 0.0
26/04:00am 10.0 6.1 8.6 91 0.7 NNE 19 24 10 13 1021.6 - 0.0
26/03:30am 10.1 6.2 8.7 91 0.7 NNE 19 24 10 13 1021.7 - 0.0
26/03:00am 10.3 6.8 8.8 90 0.7 NNE 17 20 9 11 1021.6 1021.7 0.0
26/02:30am 10.5 7.1 9.1 91 0.7 NNE 17 19 9 10 1021.8 - 0.0
26/02:00am 10.8 7.5 9.4 91 0.7 NNE 17 20 9 11 1022.0 - 0.0
26/01:30am 11.0 8.0 9.4 90 0.8 NNE 15 19 8 10 1022.0 - 0.0
26/01:00am 11.1 8.2 9.8 92 0.7 NNE 15 17 8 9 1021.8 - 0.0
26/12:30am 11.1 8.3 10.0 93 0.6 NNE 15 19 8 10 1021.7 - 0.0
26/12:00am 11.7 8.7 10.5 92 0.6 NNE 17 20 9 11 1021.7 1021.8 0.0
 
Date/Time
WST
Temp
°C
App
Temp
°C
Dew
Point
Rel
Hum
%
Delta-T
°C
Wind Press
QNH
hPa
Press
MSL
hPa
Rain
since 9 am
mm
Dir
 
Spd
km/h
Gust
km/h
Spd
kts
Gust
kts
25/11:30pm 11.7 9.1 10.7 94 0.5 NNE 15 17 8 9 1021.8 - 0.0
25/11:00pm 11.9 9.4 10.9 94 0.5 NNE 15 17 8 9 1021.8 - 0.0
25/10:30pm 12.3 10.2 11.2 93 0.6 NNE 13 13 7 7 1021.8 - 0.0
25/10:00pm 12.6 10.6 11.5 93 0.6 NNE 13 15 7 8 1021.8 - 0.0
25/09:30pm 12.0 11.6 11.1 94 0.5 E 4 9 2 5 1021.7 - 0.0
25/09:00pm 13.0 13.0 12.5 97 0.3 SSE 4 6 2 3 1021.7 1021.8 0.0
25/08:30pm 13.9 13.6 12.8 93 0.6 SSE 6 7 3 4 1021.6 - 0.0
25/08:00pm 13.9 12.6 12.6 92 0.7 E 11 11 6 6 1021.5 - 0.0
25/07:30pm 14.7 13.5 12.8 88 1.0 SE 11 13 6 7 1021.0 - 0.0
25/07:00pm 16.7 16.5 13.7 82 1.7 S 7 9 4 5 1020.9 - 0.0
25/06:30pm 16.9 17.0 14.0 83 1.7 E 6 11 3 6 1020.6 - 0.0
25/06:00pm 19.7 18.6 14.4 71 3.1 SW 13 15 7 8 1020.4 1020.5 0.0
25/05:30pm 22.0 20.4 12.9 56 5.2 SW 13 15 7 8 1020.2 - 0.0
25/05:00pm 24.4 23.2 13.9 52 6.2 SSW 13 15 7 8 1020.0 - 0.0
25/04:30pm 26.9 24.2 5.6 25 11.0 WSW 9 11 5 6 1020.1 - 0.0
25/04:00pm 27.4 23.8 3.1 21 12.0 WSW 11 17 6 9 1020.0 - 0.0
25/03:30pm 27.8 24.7 3.6 21 12.1 NW 9 13 5 7 1020.0 - 0.0
25/03:00pm 28.1 24.7 1.8 18 12.8 WNW 9 15 5 8 1020.1 1020.2 0.0
25/02:30pm 27.8 23.8 2.6 19 12.4 NNW 13 19 7 10 1020.4 - 0.0
25/02:00pm 28.8 25.3 3.5 20 12.7 N 11 20 6 11 1020.5 - 0.0
25/01:30pm 28.4 25.8 4.1 21 12.3 W 7 15 4 8 1020.5 - 0.0
25/01:00pm 27.6 25.0 4.3 22 11.8 SW 7 15 4 8 1020.7 - 0.0
25/12:30pm 27.5 24.8 7.2 27 10.8 N 11 17 6 9 1021.2 - 0.0
25/12:00pm 27.0 24.5 8.3 30 10.1 N 11 15 6 8 1021.5 1021.6 0.0
25/11:30am 25.8 22.8 9.1 34 9.1 NNE 15 20 8 11 1021.9 - 0.0
25/11:00am 24.4 21.5 12.3 46 6.9 NNE 19 24 10 13 1022.4 - 0.0
25/10:30am 22.5 20.2 12.9 54 5.5 NNE 17 20 9 11 1022.4 - 0.0
25/10:00am 19.8 17.0 13.1 65 3.8 NNE 20 28 11 15 1022.7 - 0.0
25/09:30am 17.7 15.3 12.5 71 2.9 NE 17 20 9 11 1022.5 - 0.0
25/09:00am 15.8 13.6 12.2 79 2.0 NE 15 20 8 11 1022.6 1022.7 0.0
25/08:30am 13.6 11.1 11.1 85 1.3 NE 15 20 8 11 1022.6 - 0.0
25/08:00am 11.7 8.6 10.2 90 0.8 NNE 17 24 9 13 1022.4 - 0.0
25/07:30am 10.1 6.6 8.9 92 0.6 NE 17 20 9 11 1022.3 - 0.0
25/07:00am 8.9 5.2 8.1 95 0.4 NE 17 20 9 11 1022.2 - 0.0
25/06:30am 9.0 4.7 8.0 93 0.5 NNE 20 24 11 13 1022.0 - 0.0
25/06:00am 9.5 5.9 8.3 92 0.6 NE 17 20 9 11 1021.5 1021.6 0.0
25/05:30am 9.3 6.4 8.3 93 0.5 NE 13 17 7 9 1021.2 - 0.0
25/05:00am 9.3 6.5 8.5 95 0.4 ENE 13 17 7 9 1020.8 - 0.0
25/04:30am 9.4 6.2 8.6 95 0.4 NE 15 19 8 10 1020.9 - 0.0
25/04:00am 10.1 6.1 8.9 92 0.6 NNE 20 24 11 13 1020.9 - 0.0
25/03:30am 9.8 6.3 8.8 93 0.5 NNE 17 20 9 11 1020.8 - 0.0
25/03:00am 9.8 5.9 8.8 93 0.5 NNE 19 22 10 12 1021.1 1021.2 0.0
25/02:30am 8.9 5.7 8.3 96 0.3 NNE 15 19 8 10 1021.4 - 0.0
25/02:00am 9.0 6.2 8.4 96 0.3 E 13 15 7 8 1021.4 - 0.0
25/01:30am 9.7 7.4 8.9 95 0.4 E 11 11 6 6 1021.6 - 0.0
25/01:00am 10.8 7.2 9.8 93 0.5 NNE 19 20 10 11 1022.1 - 0.0
25/12:30am 10.7 7.4 9.7 93 0.5 NNE 17 20 9 11 1022.0 - 0.0
25/12:00am 11.3 8.1 10.0 92 0.7 NNE 17 20 9 11 1022.3 1022.4 0.0
 
Date/Time
WST
Temp
°C
App
Temp
°C
Dew
Point
Rel
Hum
%
Delta-T
°C
Wind Press
QNH
hPa
Press
MSL
hPa
Rain
since 9 am
mm
Dir
 
Spd
km/h
Gust
km/h
Spd
kts
Gust
kts
24/11:30pm 11.6 8.5 10.4 92 0.6 NNE 17 20 9 11 1022.6 - 0.0
24/11:00pm 11.5 8.4 10.3 92 0.6 NNE 17 19 9 10 1022.8 - 0.0
24/10:30pm 11.9 9.3 10.6 92 0.7 NNE 15 17 8 9 1023.0 - 0.0
24/10:00pm 12.0 9.4 10.6 91 0.7 NNE 15 17 8 9 1023.2 - 0.0
24/09:30pm 11.6 9.3 10.5 93 0.6 NNE 13 15 7 8 1023.3 - 0.0
24/09:00pm 11.3 9.3 10.2 93 0.6 NNE 11 11 6 6 1023.2 1023.3 0.0
24/08:30pm 11.6 9.7 10.5 93 0.6 N 11 13 6 7 1022.9 - 0.0
24/08:00pm 12.4 10.9 10.5 88 1.0 N 9 11 5 6 1022.7 - 0.0
24/07:30pm 13.7 12.7 11.0 84 1.4 N 7 9 4 5 1022.5 - 0.0
24/07:00pm 14.1 13.4 11.5 84 1.4 N 6 9 3 5 1022.1 - 0.0
24/06:30pm 15.2 15.5 12.3 83 1.6 W 2 7 1 4 1021.9 - 0.0
24/06:00pm 19.6 19.2 13.0 65 3.7 W 7 9 4 5 1021.6 1021.7 0.0
24/05:30pm 20.9 19.9 12.2 57 4.9 W 9 13 5 7 1021.5 - 0.0
24/05:00pm 22.2 20.8 10.9 48 6.2 WNW 9 11 5 6 1021.4 - 0.0

Other Formats:

Comma delimited format used in spreadsheet applications
http://www.bom.gov.au/fwo/IDW60801/IDW60801.94403.axf

JavaScript Object Notation format (JSON) in row-major order
http://www.bom.gov.au/fwo/IDW60801/IDW60801.94403.json